createdAt,value
2018-04-08T00:01:36.030Z,988.90
2018-04-08T00:02:35.986Z,988.89
2018-04-08T00:04:29.357Z,988.86
2018-04-08T00:05:29.318Z,988.89
2018-04-08T00:07:22.694Z,988.85
2018-04-08T00:08:22.651Z,988.83
2018-04-08T00:10:16.081Z,988.77
2018-04-08T00:11:15.978Z,988.78
2018-04-08T00:13:09.357Z,988.74
2018-04-08T00:14:09.314Z,988.69
2018-04-08T00:16:02.698Z,988.75
2018-04-08T00:17:02.656Z,988.74
2018-04-08T00:18:56.033Z,988.71
2018-04-08T00:19:55.988Z,988.69
2018-04-08T00:21:51.897Z,988.70
2018-04-08T00:22:51.813Z,988.72
2018-04-08T00:24:47.700Z,988.70
2018-04-08T00:25:47.655Z,988.68
2018-04-08T00:27:43.540Z,988.63
2018-04-08T00:28:43.505Z,988.61
2018-04-08T00:30:36.924Z,988.61
2018-04-08T00:31:36.821Z,988.56
2018-04-08T00:33:30.204Z,988.56
2018-04-08T00:34:30.161Z,988.58
2018-04-08T00:36:23.536Z,988.52
2018-04-08T00:37:23.498Z,988.55
2018-04-08T00:39:17.074Z,988.48
2018-04-08T00:40:17.033Z,988.47
2018-04-08T00:42:10.405Z,988.47
2018-04-08T00:43:10.369Z,988.46
2018-04-08T00:45:03.768Z,988.46
2018-04-08T00:46:03.717Z,988.44
2018-04-08T00:47:59.602Z,988.45
2018-04-08T00:48:59.600Z,988.40
2018-04-08T00:50:55.437Z,988.38
2018-04-08T00:51:55.394Z,988.39
2018-04-08T00:53:48.763Z,988.39
2018-04-08T00:54:48.733Z,988.38
2018-04-08T00:56:44.608Z,988.36
2018-04-08T00:57:44.558Z,988.33
2018-04-08T00:59:40.437Z,988.34
2018-04-08T01:00:40.395Z,988.28
2018-04-08T01:02:33.791Z,988.22
2018-04-08T01:03:33.747Z,988.26
2018-04-08T01:05:27.145Z,988.22
2018-04-08T01:06:27.105Z,988.19
2018-04-08T01:08:23.010Z,988.19
2018-04-08T01:09:22.938Z,988.18
2018-04-08T01:11:18.807Z,988.17
2018-04-08T01:12:18.770Z,988.15
2018-04-08T01:14:12.200Z,988.13
2018-04-08T01:15:12.096Z,988.09
2018-04-08T01:17:08.083Z,988.10
2018-04-08T01:18:08.043Z,988.08
2018-04-08T01:20:01.473Z,988.06
2018-04-08T01:21:01.435Z,988.06
2018-04-08T01:22:54.823Z,988.02
2018-04-08T01:23:54.778Z,988.04
2018-04-08T01:25:50.660Z,988.02
2018-04-08T01:26:50.617Z,987.99
2018-04-08T01:28:43.987Z,987.98
2018-04-08T01:29:43.948Z,987.98
2018-04-08T01:31:39.828Z,987.97
2018-04-08T01:32:39.780Z,988.01
2018-04-08T01:34:33.200Z,987.95
2018-04-08T01:35:33.160Z,987.95
2018-04-08T01:37:26.541Z,987.92
2018-04-08T01:38:26.496Z,987.94
2018-04-08T01:40:22.374Z,987.92
2018-04-08T01:41:22.333Z,987.96
2018-04-08T01:43:15.706Z,987.97
2018-04-08T01:44:15.662Z,987.95
2018-04-08T01:46:11.540Z,987.98
2018-04-08T01:47:11.501Z,987.97
2018-04-08T01:49:04.870Z,987.91
2018-04-08T01:50:04.830Z,987.84
2018-04-08T01:51:58.263Z,987.82
2018-04-08T01:52:58.164Z,987.82
2018-04-08T01:54:51.526Z,987.84
2018-04-08T01:55:51.482Z,987.82
2018-04-08T01:57:44.855Z,987.82
2018-04-08T01:58:44.820Z,987.83
2018-04-08T02:00:38.195Z,987.81
2018-04-08T02:01:38.148Z,987.82
2018-04-08T02:03:34.035Z,987.82
2018-04-08T02:04:33.990Z,987.84
2018-04-08T02:06:27.359Z,987.81
2018-04-08T02:07:27.312Z,987.81
2018-04-08T02:09:20.688Z,987.82
2018-04-08T02:10:20.642Z,987.87
2018-04-08T02:12:16.519Z,987.82
2018-04-08T02:13:16.474Z,987.84
2018-04-08T02:15:09.850Z,987.79
2018-04-08T02:16:09.806Z,987.79
2018-04-08T02:18:05.691Z,987.76
2018-04-08T02:19:05.644Z,987.79
2018-04-08T02:21:01.527Z,987.80
2018-04-08T02:22:01.484Z,987.80
2018-04-08T02:23:58.237Z,987.77
2018-04-08T02:24:58.186Z,987.75
2018-04-08T02:26:51.589Z,987.79
2018-04-08T02:27:51.549Z,987.79
2018-04-08T02:29:44.922Z,987.79
2018-04-08T02:30:44.877Z,987.81
2018-04-08T02:32:38.247Z,987.79
2018-04-08T02:33:38.243Z,987.80
2018-04-08T02:35:34.671Z,987.81
2018-04-08T02:36:34.041Z,987.80
2018-04-08T02:38:27.413Z,987.79
2018-04-08T02:39:27.370Z,987.76
2018-04-08T02:41:23.254Z,987.80
2018-04-08T02:42:23.207Z,987.76
2018-04-08T02:44:19.087Z,987.78
2018-04-08T02:45:19.046Z,987.77
2018-04-08T02:47:12.412Z,987.76
2018-04-08T02:48:12.373Z,987.74
2018-04-08T02:50:05.745Z,987.73
2018-04-08T02:51:05.702Z,987.74
2018-04-08T02:53:01.574Z,987.71
2018-04-08T02:54:01.525Z,987.71
2018-04-08T02:55:54.887Z,987.69
2018-04-08T02:56:54.842Z,987.70
2018-04-08T02:58:48.214Z,987.71
2018-04-08T02:59:48.165Z,987.74
2018-04-08T03:01:41.550Z,987.75
2018-04-08T03:02:41.508Z,987.73
2018-04-08T03:04:34.879Z,987.72
2018-04-08T03:05:34.838Z,987.75
2018-04-08T03:07:28.214Z,987.73
2018-04-08T03:08:28.164Z,987.73
2018-04-08T03:10:24.049Z,987.72
2018-04-08T03:11:24.008Z,987.71
2018-04-08T03:13:17.373Z,987.68
2018-04-08T03:14:17.353Z,987.70
2018-04-08T03:16:10.737Z,987.67
2018-04-08T03:17:10.696Z,987.67
2018-04-08T03:19:04.080Z,987.60
2018-04-08T03:20:04.019Z,987.64
2018-04-08T03:21:57.397Z,987.60
2018-04-08T03:22:57.354Z,987.63
2018-04-08T03:24:50.728Z,987.65
2018-04-08T03:25:50.678Z,987.67
2018-04-08T03:27:44.054Z,987.58
2018-04-08T03:28:44.008Z,987.59
2018-04-08T03:30:37.422Z,987.60
2018-04-08T03:31:37.336Z,987.58
2018-04-08T03:33:33.216Z,987.56
2018-04-08T03:34:33.225Z,987.53
2018-04-08T03:36:26.532Z,987.51
2018-04-08T03:37:26.496Z,987.48
2018-04-08T03:39:22.444Z,987.49
2018-04-08T03:40:22.329Z,987.48
2018-04-08T03:42:16.527Z,987.45
2018-04-08T03:43:16.489Z,987.46
2018-04-08T03:45:09.858Z,987.43
2018-04-08T03:46:09.816Z,987.44
2018-04-08T03:48:03.188Z,987.44
2018-04-08T03:49:03.139Z,987.43
2018-04-08T03:50:56.528Z,987.47
2018-04-08T03:51:56.471Z,987.47
2018-04-08T03:53:52.350Z,987.47
2018-04-08T03:54:52.307Z,987.48
2018-04-08T03:56:45.685Z,987.49
2018-04-08T03:57:45.640Z,987.52
2018-04-08T03:59:39.010Z,987.46
2018-04-08T04:00:38.964Z,987.51
2018-04-08T04:02:34.835Z,987.52
2018-04-08T04:03:34.792Z,987.52
2018-04-08T04:05:28.279Z,987.52
2018-04-08T04:06:28.240Z,987.56
2018-04-08T04:08:24.172Z,987.54
2018-04-08T04:09:24.079Z,987.55
2018-04-08T04:11:18.306Z,987.53
2018-04-08T04:12:18.266Z,987.54
2018-04-08T04:14:14.156Z,987.51
2018-04-08T04:15:14.107Z,987.51
2018-04-08T04:17:07.512Z,987.51
2018-04-08T04:18:07.425Z,987.53
2018-04-08T04:20:00.799Z,987.54
2018-04-08T04:21:00.759Z,987.50
2018-04-08T04:22:57.446Z,987.48
2018-04-08T04:23:57.402Z,987.48
2018-04-08T04:25:50.769Z,987.50
2018-04-08T04:26:50.719Z,987.49
2018-04-08T04:28:44.090Z,987.47
2018-04-08T04:29:44.052Z,987.46
2018-04-08T04:31:37.422Z,987.44
2018-04-08T04:32:37.385Z,987.43
2018-04-08T04:34:30.783Z,987.46
2018-04-08T04:35:30.708Z,987.48
2018-04-08T04:37:24.063Z,987.48
2018-04-08T04:38:24.022Z,987.46
2018-04-08T04:40:19.905Z,987.50
2018-04-08T04:41:19.859Z,987.47
2018-04-08T04:43:13.287Z,987.45
2018-04-08T04:44:13.248Z,987.44
2018-04-08T04:46:06.621Z,987.47
2018-04-08T04:47:06.578Z,987.49
2018-04-08T04:48:59.950Z,987.54
2018-04-08T04:49:59.906Z,987.54
2018-04-08T04:51:53.283Z,987.51
2018-04-08T04:52:53.238Z,987.50
2018-04-08T04:54:46.615Z,987.47
2018-04-08T04:55:46.638Z,987.47
2018-04-08T04:57:39.939Z,987.47
2018-04-08T04:58:39.892Z,987.50
2018-04-08T05:00:34.137Z,987.45
2018-04-08T05:01:34.091Z,987.49
2018-04-08T05:03:27.454Z,987.47
2018-04-08T05:04:27.411Z,987.48
2018-04-08T05:06:20.797Z,987.48
2018-04-08T05:07:20.740Z,987.51
2018-04-08T05:09:16.620Z,987.51
2018-04-08T05:10:16.579Z,987.49
2018-04-08T05:12:09.938Z,987.43
2018-04-08T05:13:09.897Z,987.47
2018-04-08T05:15:03.268Z,987.45
2018-04-08T05:16:03.223Z,987.50
2018-04-08T05:17:56.594Z,987.43
2018-04-08T05:18:56.549Z,987.46
2018-04-08T05:20:52.432Z,987.44
2018-04-08T05:21:52.383Z,987.43
2018-04-08T05:23:45.797Z,987.41
2018-04-08T05:24:45.753Z,987.44
2018-04-08T05:26:39.071Z,987.44
2018-04-08T05:27:39.031Z,987.41
2018-04-08T05:29:32.395Z,987.47
2018-04-08T05:30:32.351Z,987.45
2018-04-08T05:32:25.708Z,987.45
2018-04-08T05:33:25.708Z,987.49
2018-04-08T05:35:19.031Z,987.47
2018-04-08T05:36:18.988Z,987.45
2018-04-08T05:38:12.349Z,987.41
2018-04-08T05:39:12.303Z,987.39
2018-04-08T05:41:05.794Z,987.37
2018-04-08T05:42:05.622Z,987.36
2018-04-08T05:43:58.994Z,987.39
2018-04-08T05:44:58.948Z,987.41
2018-04-08T05:46:52.310Z,987.39
2018-04-08T05:47:52.264Z,987.40
2018-04-08T05:49:45.654Z,987.36
2018-04-08T05:50:45.611Z,987.30
2018-04-08T05:52:38.991Z,987.30
2018-04-08T05:53:38.945Z,987.30
2018-04-08T05:55:32.311Z,987.27
2018-04-08T05:56:32.270Z,987.24
2018-04-08T05:58:25.642Z,987.27
2018-04-08T05:59:25.597Z,987.23
2018-04-08T06:01:18.978Z,987.19
2018-04-08T06:02:18.929Z,987.21
2018-04-08T06:04:12.302Z,987.19
2018-04-08T06:05:12.256Z,987.19
2018-04-08T06:07:08.127Z,987.19
2018-04-08T06:08:08.084Z,987.19
2018-04-08T06:10:01.458Z,987.23
2018-04-08T06:11:01.418Z,987.26
2018-04-08T06:12:54.811Z,987.24
2018-04-08T06:13:54.746Z,987.26
2018-04-08T06:15:48.115Z,987.24
2018-04-08T06:16:48.074Z,987.22
2018-04-08T06:18:41.442Z,987.25
2018-04-08T06:19:41.406Z,987.27
2018-04-08T06:21:34.878Z,987.25
2018-04-08T06:22:34.776Z,987.20
2018-04-08T06:24:28.159Z,987.24
2018-04-08T06:25:28.105Z,987.23
2018-04-08T06:27:23.991Z,987.26
2018-04-08T06:28:23.930Z,987.29
2018-04-08T06:30:17.325Z,987.26
2018-04-08T06:31:17.255Z,987.27
2018-04-08T06:33:10.611Z,987.28
2018-04-08T06:34:10.566Z,987.31
2018-04-08T06:36:03.929Z,987.27
2018-04-08T06:37:03.883Z,987.27
2018-04-08T06:38:57.313Z,987.27
2018-04-08T06:39:57.268Z,987.29
2018-04-08T06:41:50.626Z,987.28
2018-04-08T06:42:50.580Z,987.23
2018-04-08T06:44:43.996Z,987.19
2018-04-08T06:45:43.908Z,987.17
2018-04-08T06:47:37.319Z,987.21
2018-04-08T06:48:37.276Z,987.20
2018-04-08T06:50:31.531Z,987.19
2018-04-08T06:51:31.484Z,987.18
2018-04-08T06:53:25.750Z,987.18
2018-04-08T06:54:25.708Z,987.21
2018-04-08T06:56:19.072Z,987.19
2018-04-08T06:57:19.032Z,987.16
2018-04-08T06:59:14.938Z,987.17
2018-04-08T07:00:14.870Z,987.17
2018-04-08T07:02:08.250Z,987.17
2018-04-08T07:03:08.208Z,987.16
2018-04-08T07:05:01.582Z,987.17
2018-04-08T07:06:01.543Z,987.17
2018-04-08T07:07:57.414Z,987.14
2018-04-08T07:08:57.371Z,987.17
2018-04-08T07:10:53.248Z,987.15
2018-04-08T07:11:53.212Z,987.15
2018-04-08T07:13:46.579Z,987.11
2018-04-08T07:14:46.541Z,987.11
2018-04-08T07:16:42.420Z,987.13
2018-04-08T07:17:42.376Z,987.11
2018-04-08T07:19:35.744Z,987.06
2018-04-08T07:20:35.700Z,987.07
2018-04-08T07:22:29.173Z,987.05
2018-04-08T07:23:29.030Z,987.01
2018-04-08T07:25:22.399Z,986.98
2018-04-08T07:26:22.375Z,987.02
2018-04-08T07:28:18.242Z,987.06
2018-04-08T07:29:18.194Z,987.03
2018-04-08T07:31:14.072Z,987.03
2018-04-08T07:32:14.029Z,987.04
2018-04-08T07:34:09.906Z,987.05
2018-04-08T07:35:09.861Z,987.04
2018-04-08T07:37:03.235Z,987.05
2018-04-08T07:38:03.233Z,987.02
2018-04-08T07:39:56.610Z,987.05
2018-04-08T07:40:56.523Z,987.08
2018-04-08T07:42:49.888Z,987.06
2018-04-08T07:43:49.847Z,987.03
2018-04-08T07:45:43.299Z,987.03
2018-04-08T07:46:43.257Z,986.97
2018-04-08T07:48:39.138Z,986.95
2018-04-08T07:49:39.095Z,986.96
2018-04-08T07:51:35.072Z,986.97
2018-04-08T07:52:34.983Z,986.93
2018-04-08T07:54:30.856Z,986.91
2018-04-08T07:55:30.816Z,986.90
2018-04-08T07:57:26.742Z,986.86
2018-04-08T07:58:26.699Z,986.85
2018-04-08T08:00:21.096Z,986.87
2018-04-08T08:01:21.043Z,986.86
2018-04-08T08:03:15.225Z,986.84
2018-04-08T08:04:15.185Z,986.87
2018-04-08T08:06:08.556Z,986.84
2018-04-08T08:07:08.511Z,986.80
2018-04-08T08:09:01.928Z,986.83
2018-04-08T08:10:01.843Z,986.86
2018-04-08T08:11:55.212Z,986.85
2018-04-08T08:12:55.172Z,986.84
2018-04-08T08:14:48.551Z,986.86
2018-04-08T08:15:48.505Z,986.86
2018-04-08T08:17:41.883Z,986.85
2018-04-08T08:18:41.843Z,986.78
2018-04-08T08:20:35.209Z,986.78
2018-04-08T08:21:35.173Z,986.77
2018-04-08T08:23:28.560Z,986.74
2018-04-08T08:24:28.512Z,986.77
2018-04-08T08:26:21.882Z,986.76
2018-04-08T08:27:21.845Z,986.78
2018-04-08T08:29:16.078Z,986.78
2018-04-08T08:30:16.042Z,986.76
2018-04-08T08:32:09.436Z,986.74
2018-04-08T08:33:09.379Z,986.79
2018-04-08T08:35:02.750Z,986.71
2018-04-08T08:36:02.720Z,986.71
2018-04-08T08:37:56.104Z,986.73
2018-04-08T08:38:56.058Z,986.72
2018-04-08T08:40:49.432Z,986.70
2018-04-08T08:41:49.396Z,986.69
2018-04-08T08:43:42.789Z,986.69
2018-04-08T08:44:42.732Z,986.69
2018-04-08T08:46:36.122Z,986.68
2018-04-08T08:47:36.079Z,986.68
2018-04-08T08:49:31.952Z,986.67
2018-04-08T08:50:31.913Z,986.65
2018-04-08T08:52:25.317Z,986.67
2018-04-08T08:53:25.248Z,986.66
2018-04-08T08:55:18.626Z,986.68
2018-04-08T08:56:18.598Z,986.64
2018-04-08T08:58:14.504Z,986.60
2018-04-08T08:59:14.457Z,986.66
2018-04-08T09:01:07.833Z,986.65
2018-04-08T09:02:07.796Z,986.67
2018-04-08T09:04:01.212Z,986.64
2018-04-08T09:05:01.164Z,986.60
2018-04-08T09:06:57.057Z,986.58
2018-04-08T09:07:57.009Z,986.57
2018-04-08T09:09:50.503Z,986.58
2018-04-08T09:10:50.456Z,986.55
2018-04-08T09:12:43.847Z,986.58
2018-04-08T09:13:43.822Z,986.60
2018-04-08T09:15:39.706Z,986.56
2018-04-08T09:16:39.674Z,986.55
2018-04-08T09:18:35.573Z,986.54
2018-04-08T09:19:35.522Z,986.55
2018-04-08T09:21:28.916Z,986.58
2018-04-08T09:22:28.880Z,986.58
2018-04-08T09:24:22.245Z,986.59
2018-04-08T09:25:22.211Z,986.59
2018-04-08T09:27:15.589Z,986.53
2018-04-08T09:28:15.594Z,986.57
2018-04-08T09:30:08.943Z,986.58
2018-04-08T09:31:08.899Z,986.54
2018-04-08T09:33:02.270Z,986.55
2018-04-08T09:34:02.253Z,986.54
2018-04-08T09:35:55.607Z,986.53
2018-04-08T09:36:55.570Z,986.54
2018-04-08T09:38:48.966Z,986.53
2018-04-08T09:39:48.973Z,986.54
2018-04-08T09:41:44.834Z,986.52
2018-04-08T09:42:44.784Z,986.48
2018-04-08T09:44:38.179Z,986.48
2018-04-08T09:45:38.141Z,986.46
2018-04-08T09:47:34.027Z,986.46
2018-04-08T09:48:34.000Z,986.43
2018-04-08T09:50:28.388Z,986.48
2018-04-08T09:51:28.383Z,986.39
2018-04-08T09:53:21.870Z,986.40
2018-04-08T09:54:21.741Z,986.37
2018-04-08T09:56:15.132Z,986.36
2018-04-08T09:57:15.095Z,986.33
2018-04-08T09:59:11.978Z,986.35
2018-04-08T10:00:11.939Z,986.31
2018-04-08T10:02:06.330Z,986.29
2018-04-08T10:03:06.285Z,986.31
2018-04-08T10:05:02.206Z,986.28
2018-04-08T10:06:02.166Z,986.28
2018-04-08T10:07:59.035Z,986.23
2018-04-08T10:08:59.009Z,986.22
2018-04-08T10:10:55.944Z,986.21
2018-04-08T10:11:55.899Z,986.24
2018-04-08T10:13:52.734Z,986.22
2018-04-08T10:14:52.702Z,986.24
2018-04-08T10:16:46.085Z,986.20
2018-04-08T10:17:46.036Z,986.19
2018-04-08T10:19:39.415Z,986.16
2018-04-08T10:20:39.374Z,986.15
2018-04-08T10:22:32.759Z,986.13
2018-04-08T10:23:32.717Z,986.12
2018-04-08T10:25:27.107Z,986.03
2018-04-08T10:26:27.068Z,986.06
2018-04-08T10:28:21.459Z,986.08
2018-04-08T10:29:21.421Z,986.01
2018-04-08T10:31:15.803Z,985.96
2018-04-08T10:32:15.769Z,985.90
2018-04-08T10:34:12.646Z,985.87
2018-04-08T10:35:12.610Z,985.89
2018-04-08T10:37:06.995Z,985.85
2018-04-08T10:38:06.959Z,985.88
2018-04-08T10:40:00.392Z,985.85
2018-04-08T10:41:00.357Z,985.83
2018-04-08T10:42:53.801Z,985.78
2018-04-08T10:43:53.769Z,985.77
2018-04-08T10:45:47.228Z,985.71
2018-04-08T10:46:47.190Z,985.75
2018-04-08T10:48:44.076Z,985.76
2018-04-08T10:49:44.039Z,985.68
2018-04-08T10:51:37.493Z,985.69
2018-04-08T10:52:37.403Z,985.67
2018-04-08T10:54:31.833Z,985.67
2018-04-08T10:55:31.752Z,985.61
2018-04-08T10:57:26.211Z,985.59
2018-04-08T10:58:26.110Z,985.63
2018-04-08T11:00:20.564Z,985.56
2018-04-08T11:01:20.466Z,985.60
2018-04-08T11:03:13.841Z,985.57
2018-04-08T11:04:13.802Z,985.61
2018-04-08T11:06:08.193Z,985.57
2018-04-08T11:07:08.182Z,985.56
2018-04-08T11:09:02.586Z,985.50
2018-04-08T11:10:02.499Z,985.55
2018-04-08T11:11:55.879Z,985.48
2018-04-08T11:12:55.840Z,985.46
2018-04-08T11:14:50.228Z,985.45
2018-04-08T11:15:50.195Z,985.46
2018-04-08T11:17:44.678Z,985.42
2018-04-08T11:18:44.543Z,985.43
2018-04-08T11:20:38.925Z,985.46
2018-04-08T11:21:38.892Z,985.49
2018-04-08T11:23:35.784Z,985.47
2018-04-08T11:24:35.749Z,985.42
2018-04-08T11:26:30.133Z,985.38
2018-04-08T11:27:30.094Z,985.37
2018-04-08T11:29:24.484Z,985.38
2018-04-08T11:30:24.440Z,985.41
2018-04-08T11:32:18.846Z,985.36
2018-04-08T11:33:18.794Z,985.34
2018-04-08T11:35:15.686Z,985.37
2018-04-08T11:36:15.648Z,985.37
2018-04-08T11:38:10.032Z,985.34
2018-04-08T11:39:09.995Z,985.37
2018-04-08T11:41:04.384Z,985.32
2018-04-08T11:42:04.343Z,985.33
2018-04-08T11:43:58.738Z,985.29
2018-04-08T11:44:58.691Z,985.29
2018-04-08T11:46:55.592Z,985.28
2018-04-08T11:47:55.555Z,985.22
2018-04-08T11:49:50.805Z,985.20
2018-04-08T11:50:50.763Z,985.19
2018-04-08T11:52:46.019Z,985.18
2018-04-08T11:53:45.983Z,985.14
2018-04-08T11:55:40.397Z,985.15
2018-04-08T11:56:40.341Z,985.14
2018-04-08T11:58:34.725Z,985.15
2018-04-08T11:59:34.686Z,985.15
2018-04-08T12:01:31.592Z,985.09
2018-04-08T12:02:31.549Z,985.08
2018-04-08T12:04:26.788Z,985.02
2018-04-08T12:05:26.707Z,985.00
2018-04-08T12:07:23.627Z,985.01
2018-04-08T12:08:23.581Z,984.95
2018-04-08T12:10:17.961Z,984.93
2018-04-08T12:11:17.926Z,984.93
2018-04-08T12:13:14.832Z,984.94
2018-04-08T12:14:14.807Z,984.86
2018-04-08T12:16:09.232Z,984.89
2018-04-08T12:17:09.130Z,984.92
2018-04-08T12:19:06.035Z,984.93
2018-04-08T12:20:06.006Z,984.89
2018-04-08T12:22:00.386Z,984.90
2018-04-08T12:23:00.349Z,984.93
2018-04-08T12:24:57.257Z,984.85
2018-04-08T12:25:57.216Z,984.86
2018-04-08T12:27:51.627Z,984.84
2018-04-08T12:28:51.589Z,984.82
2018-04-08T12:30:45.973Z,984.84
2018-04-08T12:31:45.938Z,984.81
2018-04-08T12:33:40.327Z,984.85
2018-04-08T12:34:40.288Z,984.82
2018-04-08T12:36:37.186Z,984.83
2018-04-08T12:37:37.149Z,984.86
2018-04-08T12:39:34.041Z,984.82
2018-04-08T12:40:34.000Z,984.90
2018-04-08T12:42:30.899Z,984.79
2018-04-08T12:43:30.875Z,984.72
2018-04-08T12:45:25.239Z,984.77
2018-04-08T12:46:25.204Z,984.72
2018-04-08T12:48:19.587Z,984.72
2018-04-08T12:49:19.548Z,984.71
2018-04-08T12:51:14.011Z,984.66
2018-04-08T12:52:13.898Z,984.61
2018-04-08T12:54:08.296Z,984.61
2018-04-08T12:55:08.260Z,984.61
2018-04-08T12:57:02.646Z,984.57
2018-04-08T12:58:02.604Z,984.59
2018-04-08T12:59:56.996Z,984.55
2018-04-08T13:00:56.955Z,984.54
2018-04-08T13:02:51.366Z,984.59
2018-04-08T13:03:51.319Z,984.55
2018-04-08T13:05:45.718Z,984.56
2018-04-08T13:06:45.665Z,984.59
2018-04-08T13:08:40.064Z,984.61
2018-04-08T13:09:40.011Z,984.57
2018-04-08T13:11:34.394Z,984.60
2018-04-08T13:12:34.358Z,984.58
2018-04-08T13:14:29.625Z,984.52
2018-04-08T13:15:29.575Z,984.51
2018-04-08T13:17:23.988Z,984.60
2018-04-08T13:18:23.934Z,984.52
2018-04-08T13:20:18.312Z,984.52
2018-04-08T13:21:18.278Z,984.49
2018-04-08T13:23:12.665Z,984.51
2018-04-08T13:24:12.624Z,984.54
2018-04-08T13:26:07.013Z,984.50
2018-04-08T13:27:06.975Z,984.45
2018-04-08T13:29:03.864Z,984.50
2018-04-08T13:30:03.823Z,984.47
2018-04-08T13:31:58.214Z,984.40
2018-04-08T13:32:58.177Z,984.46
2018-04-08T13:34:52.556Z,984.46
2018-04-08T13:35:52.521Z,984.48
2018-04-08T13:37:46.917Z,984.41
2018-04-08T13:38:46.878Z,984.46
2018-04-08T13:40:41.433Z,984.47
2018-04-08T13:41:41.234Z,984.50
2018-04-08T13:43:36.487Z,984.49
2018-04-08T13:44:36.469Z,984.47
2018-04-08T13:46:30.835Z,984.43
2018-04-08T13:47:30.798Z,984.45
2018-04-08T13:49:25.201Z,984.42
2018-04-08T13:50:25.151Z,984.43
2018-04-08T13:52:20.107Z,984.45
2018-04-08T13:53:19.489Z,984.41
2018-04-08T13:55:13.905Z,984.43
2018-04-08T13:56:13.863Z,984.49
2018-04-08T13:58:07.223Z,984.41
2018-04-08T13:59:07.189Z,984.44
2018-04-08T14:01:00.656Z,984.39
2018-04-08T14:02:00.614Z,984.46
2018-04-08T14:03:55.010Z,984.39
2018-04-08T14:04:54.979Z,984.40
2018-04-08T14:06:51.845Z,984.33
2018-04-08T14:07:51.811Z,984.38
2018-04-08T14:09:46.255Z,984.35
2018-04-08T14:10:46.165Z,984.36
2018-04-08T14:12:40.561Z,984.35
2018-04-08T14:13:40.515Z,984.36
2018-04-08T14:15:35.959Z,984.33
2018-04-08T14:16:35.761Z,984.29
2018-04-08T14:18:30.975Z,984.25
2018-04-08T14:19:30.938Z,984.22
2018-04-08T14:21:27.722Z,984.21
2018-04-08T14:22:27.671Z,984.15
2018-04-08T14:24:22.083Z,984.20
2018-04-08T14:25:22.011Z,984.20
2018-04-08T14:27:16.460Z,984.19
2018-04-08T14:28:16.357Z,984.14
2018-04-08T14:30:10.743Z,984.16
2018-04-08T14:31:10.702Z,984.14
2018-04-08T14:33:05.092Z,984.14
2018-04-08T14:34:05.046Z,984.12
2018-04-08T14:35:59.434Z,984.08
2018-04-08T14:36:59.387Z,984.08
2018-04-08T14:38:53.777Z,984.06
2018-04-08T14:39:53.735Z,984.04
2018-04-08T14:41:48.185Z,984.16
2018-04-08T14:42:48.139Z,984.10
2018-04-08T14:44:42.487Z,984.09
2018-04-08T14:45:42.446Z,984.09
2018-04-08T14:47:38.351Z,984.09
2018-04-08T14:48:38.286Z,984.12
2018-04-08T14:50:32.670Z,984.03
2018-04-08T14:51:32.635Z,984.09
2018-04-08T14:53:27.037Z,984.11
2018-04-08T14:54:26.997Z,984.15
2018-04-08T14:56:21.380Z,984.11
2018-04-08T14:57:21.347Z,984.07
2018-04-08T14:59:15.726Z,984.11
2018-04-08T15:00:15.693Z,984.08
2018-04-08T15:02:10.895Z,984.11
2018-04-08T15:03:10.853Z,984.10
2018-04-08T15:05:05.269Z,984.09
2018-04-08T15:06:05.216Z,984.06
2018-04-08T15:07:59.615Z,984.10
2018-04-08T15:08:59.562Z,984.08
2018-04-08T15:10:53.965Z,984.05
2018-04-08T15:11:53.906Z,984.04
2018-04-08T15:13:48.287Z,984.04
2018-04-08T15:14:48.248Z,984.01
2018-04-08T15:16:45.206Z,984.03
2018-04-08T15:17:45.114Z,984.05
2018-04-08T15:19:39.486Z,984.07
2018-04-08T15:20:39.445Z,984.05
2018-04-08T15:22:33.852Z,984.03
2018-04-08T15:23:33.807Z,984.04
2018-04-08T15:25:30.727Z,983.98
2018-04-08T15:26:30.652Z,983.99
2018-04-08T15:28:25.045Z,983.98
2018-04-08T15:29:24.997Z,984.03
2018-04-08T15:31:19.403Z,984.01
2018-04-08T15:32:19.359Z,983.98
2018-04-08T15:34:13.747Z,984.01
2018-04-08T15:35:13.706Z,984.02
2018-04-08T15:37:08.111Z,983.92
2018-04-08T15:38:08.058Z,983.93
2018-04-08T15:40:02.452Z,983.89
2018-04-08T15:41:02.413Z,983.92
2018-04-08T15:42:56.803Z,983.89
2018-04-08T15:43:56.760Z,983.88
2018-04-08T15:45:52.006Z,983.84
2018-04-08T15:46:52.003Z,983.88
2018-04-08T15:48:47.224Z,983.88
2018-04-08T15:49:47.169Z,983.88
2018-04-08T15:51:42.422Z,983.84
2018-04-08T15:52:42.379Z,983.89
2018-04-08T15:54:37.636Z,983.85
2018-04-08T15:55:37.595Z,983.86
2018-04-08T15:57:31.985Z,983.89
2018-04-08T15:58:31.950Z,983.88
2018-04-08T16:00:26.357Z,983.85
2018-04-08T16:01:26.330Z,983.86
2018-04-08T16:03:20.681Z,983.86
2018-04-08T16:04:20.640Z,983.87
2018-04-08T16:06:15.028Z,983.86
2018-04-08T16:07:14.989Z,983.85
2018-04-08T16:09:09.374Z,983.87
2018-04-08T16:10:09.338Z,983.88
2018-04-08T16:12:03.768Z,983.87
2018-04-08T16:13:03.721Z,983.86
2018-04-08T16:14:58.978Z,983.88
2018-04-08T16:15:58.937Z,983.83
2018-04-08T16:17:53.342Z,983.82
2018-04-08T16:18:53.302Z,983.81
2018-04-08T16:20:47.682Z,983.80
2018-04-08T16:21:47.643Z,983.86
2018-04-08T16:23:44.573Z,983.85
2018-04-08T16:24:44.487Z,983.86
2018-04-08T16:26:41.422Z,983.86
2018-04-08T16:27:41.398Z,983.88
2018-04-08T16:29:38.226Z,983.92
2018-04-08T16:30:38.190Z,983.83
2018-04-08T16:32:32.578Z,983.87
2018-04-08T16:33:32.535Z,983.89
2018-04-08T16:35:26.914Z,983.83
2018-04-08T16:36:26.882Z,983.85
2018-04-08T16:38:23.777Z,983.77
2018-04-08T16:39:23.733Z,983.87
2018-04-08T16:41:18.173Z,983.88
2018-04-08T16:42:18.078Z,983.86
2018-04-08T16:44:12.480Z,983.88
2018-04-08T16:45:12.425Z,983.96
2018-04-08T16:47:06.820Z,983.98
2018-04-08T16:48:06.782Z,983.98
2018-04-08T16:50:01.178Z,983.95
2018-04-08T16:51:01.139Z,983.99
2018-04-08T16:52:55.544Z,983.97
2018-04-08T16:53:55.499Z,983.99
2018-04-08T16:55:52.382Z,983.99
2018-04-08T16:56:52.335Z,984.04
2018-04-08T16:58:46.721Z,984.00
2018-04-08T16:59:46.677Z,984.01
2018-04-08T17:01:43.599Z,984.01
2018-04-08T17:02:43.558Z,984.02
2018-04-08T17:04:37.961Z,983.96
2018-04-08T17:05:37.903Z,984.00
2018-04-08T17:07:32.296Z,984.02
2018-04-08T17:08:32.252Z,984.02
2018-04-08T17:10:26.649Z,984.02
2018-04-08T17:11:26.608Z,984.05
2018-04-08T17:13:20.996Z,984.05
2018-04-08T17:14:20.957Z,984.03
2018-04-08T17:16:16.270Z,984.01
2018-04-08T17:17:16.227Z,983.98
2018-04-08T17:19:10.614Z,984.03
2018-04-08T17:20:10.575Z,984.02
2018-04-08T17:22:04.971Z,984.02
2018-04-08T17:23:04.918Z,984.04
2018-04-08T17:24:59.311Z,984.07
2018-04-08T17:25:59.277Z,984.08
2018-04-08T17:27:53.671Z,984.05
2018-04-08T17:28:53.632Z,984.08
2018-04-08T17:30:51.380Z,984.05
2018-04-08T17:31:51.342Z,984.01
2018-04-08T17:33:48.240Z,984.02
2018-04-08T17:34:48.188Z,983.99
2018-04-08T17:36:42.636Z,984.05
2018-04-08T17:37:42.585Z,984.03
2018-04-08T17:39:36.961Z,983.99
2018-04-08T17:40:36.904Z,984.04
2018-04-08T17:42:31.297Z,984.01
2018-04-08T17:43:31.260Z,984.00
2018-04-08T17:45:25.666Z,984.04
2018-04-08T17:46:25.606Z,984.04
2018-04-08T17:48:19.991Z,984.09
2018-04-08T17:49:19.947Z,984.12
2018-04-08T17:51:16.839Z,984.08
2018-04-08T17:52:16.793Z,984.08
2018-04-08T17:54:11.199Z,984.12
2018-04-08T17:55:11.137Z,984.06
2018-04-08T17:57:08.038Z,984.11
2018-04-08T17:58:07.993Z,984.10
2018-04-08T18:00:05.777Z,984.17
2018-04-08T18:01:05.729Z,984.14
2018-04-08T18:03:02.704Z,984.19
2018-04-08T18:04:02.566Z,984.21
2018-04-08T18:05:56.964Z,984.21
2018-04-08T18:06:56.918Z,984.21
2018-04-08T18:08:54.699Z,984.23